Terminal Aerodrome Forecast
Issued by NWS Grand Forks, ND

Home | Current Version | Previous Version | Text Only | Print | Product List | Glossary Off
Versions: 1 2 3 4 5 6 7 8 9 10 11 12 13 14 15 16 17

422
FTUS43 KFGF 011720
TAFGFK
TAF
KGFK 011720Z 0118/0218 35010KT P6SM OVC015
     FM012100 35007KT P6SM BKN025
     FM020100 34007KT P6SM BKN015=

USA.gov is the U.S. government's official web portal to all federal, state and local government web resources and services.